Time;durP1;ratioP1;P1;durP2;ratioP2;P2;SDS_P1;SDS_P2;PMS_P1;PMS_P2;Temp;Humidity;BMP_temperature;BMP_pressure;BME280_temperature;BME280_humidity;BME280_pressure;Samples;Min_cycle;Max_cycle;Signal;HPM_P1;HPM_P2
2023/12/26 00:02:23;;;;;;;0.50;0.50;;;;;;;;;;8219313;28;20842;-59
2023/12/26 00:06:24;;;;;;;0.55;0.55;;;;;;;;;;8221722;28;20022;-59
2023/12/26 00:10:24;;;;;;;0.57;0.50;;;;;;;;;;8220002;28;20017;-58
2023/12/26 00:14:24;;;;;;;0.50;0.50;;;;;;;;;;8213071;28;20084;-58
2023/12/26 00:18:24;;;;;;;0.50;0.50;;;;;;;;;;8219247;28;20321;-58
2023/12/26 00:22:24;;;;;;;0.50;0.50;;;;;;;;;;8219567;28;20550;-58
2023/12/26 00:26:25;;;;;;;0.50;0.50;;;;;;;;;;8216635;28;20143;-58
2023/12/26 00:30:25;;;;;;;0.70;0.70;;;;;;;;;;8230587;28;20046;-58
2023/12/26 00:34:25;;;;;;;0.50;0.50;;;;;;;;;;8240243;28;20018;-58
2023/12/26 00:38:25;;;;;;;0.50;0.50;;;;;;;;;;8238312;28;20064;-58
2023/12/26 00:42:26;;;;;;;0.60;0.60;;;;;;;;;;8239475;28;22378;-58
2023/12/26 00:46:26;;;;;;;0.60;0.60;;;;;;;;;;8242164;28;22229;-59
2023/12/26 00:50:27;;;;;;;2.08;0.50;;;;;;;;;;8240282;28;20034;-59
2023/12/26 00:54:27;;;;;;;0.75;0.60;;;;;;;;;;8237832;28;20151;-59
2023/12/26 00:58:27;;;;;;;0.73;0.70;;;;;;;;;;8237773;28;20672;-58
2023/12/26 01:02:27;;;;;;;0.50;0.50;;;;;;;;;;8237507;28;20045;-58
2023/12/26 01:06:28;;;;;;;0.60;0.60;;;;;;;;;;8240366;28;20025;-59
2023/12/26 01:10:28;;;;;;;0.60;0.60;;;;;;;;;;8237309;28;20036;-59
2023/12/26 01:14:28;;;;;;;0.50;0.50;;;;;;;;;;8240811;28;23966;-59
2023/12/26 01:18:29;;;;;;;0.70;0.50;;;;;;;;;;8234162;28;21465;-59
2023/12/26 01:22:29;;;;;;;0.40;0.40;;;;;;;;;;8225895;28;20186;-59
2023/12/26 01:26:30;;;;;;;1.00;0.90;;;;;;;;;;8224926;28;20034;-59
2023/12/26 01:30:31;;;;;;;0.70;0.68;;;;;;;;;;8225380;28;20039;-60
2023/12/26 01:34:31;;;;;;;1.02;0.70;;;;;;;;;;8226776;28;20026;-59
2023/12/26 01:38:31;;;;;;;3.58;1.10;;;;;;;;;;8227776;28;22269;-60
2023/12/26 01:42:31;;;;;;;3.92;1.30;;;;;;;;;;8227936;28;20030;-59
2023/12/26 01:46:32;;;;;;;6.18;1.38;;;;;;;;;;8228847;28;20498;-59
2023/12/26 01:50:33;;;;;;;4.13;1.20;;;;;;;;;;8231048;28;20037;-59
2023/12/26 01:54:33;;;;;;;4.50;1.40;;;;;;;;;;8226102;28;20022;-59
2023/12/26 01:58:34;;;;;;;3.33;1.40;;;;;;;;;;8231959;28;20033;-59
2023/12/26 02:02:34;;;;;;;7.47;1.60;;;;;;;;;;8227559;28;20528;-59
2023/12/26 02:06:35;;;;;;;4.17;1.47;;;;;;;;;;8227468;28;20033;-59
2023/12/26 02:10:36;;;;;;;4.13;1.80;;;;;;;;;;8228503;28;20347;-60
2023/12/26 02:14:36;;;;;;;5.75;1.55;;;;;;;;;;8226992;28;20109;-60
2023/12/26 02:18:37;;;;;;;7.32;1.80;;;;;;;;;;8228934;28;20562;-59
2023/12/26 02:22:38;;;;;;;3.65;1.73;;;;;;;;;;8247051;28;20026;-59
2023/12/26 02:26:39;;;;;;;5.15;1.55;;;;;;;;;;8247455;28;20033;-59
2023/12/26 02:30:40;;;;;;;8.82;1.70;;;;;;;;;;8248266;28;20050;-59
2023/12/26 02:34:40;;;;;;;7.22;1.60;;;;;;;;;;8248941;28;20033;-59
2023/12/26 02:38:41;;;;;;;3.78;1.25;;;;;;;;;;8242277;28;20029;-58
2023/12/26 02:42:41;;;;;;;7.45;1.73;;;;;;;;;;8246148;28;20153;-59
2023/12/26 02:46:41;;;;;;;6.37;1.50;;;;;;;;;;8246443;28;20037;-58
2023/12/26 02:50:41;;;;;;;5.85;1.80;;;;;;;;;;8228258;28;20367;-59
2023/12/26 02:54:42;;;;;;;5.03;1.50;;;;;;;;;;8220130;28;20022;-59
2023/12/26 02:58:42;;;;;;;4.50;1.75;;;;;;;;;;8227124;28;20030;-59
2023/12/26 03:02:42;;;;;;;6.40;1.60;;;;;;;;;;8226327;28;20065;-59
2023/12/26 03:06:42;;;;;;;3.38;1.58;;;;;;;;;;8225270;28;20510;-59
2023/12/26 03:10:42;;;;;;;5.70;1.75;;;;;;;;;;8225337;28;20025;-58
2023/12/26 03:14:43;;;;;;;5.20;1.77;;;;;;;;;;8224003;28;20025;-59
2023/12/26 03:18:43;;;;;;;8.27;2.20;;;;;;;;;;8225039;28;20042;-59
2023/12/26 03:22:43;;;;;;;8.45;2.00;;;;;;;;;;8224994;28;20029;-58
2023/12/26 03:26:43;;;;;;;5.32;1.77;;;;;;;;;;8226654;28;20651;-59
2023/12/26 03:30:43;;;;;;;4.88;1.80;;;;;;;;;;8224817;28;20034;-59
2023/12/26 03:34:43;;;;;;;9.40;2.00;;;;;;;;;;8225321;28;20149;-59
2023/12/26 03:38:45;;;;;;;9.52;2.15;;;;;;;;;;8224197;28;20026;-59
2023/12/26 03:42:46;;;;;;;10.93;1.92;;;;;;;;;;8223878;28;20030;-60
2023/12/26 03:46:46;;;;;;;9.73;1.98;;;;;;;;;;8226899;28;20894;-59
2023/12/26 03:50:46;;;;;;;8.40;2.20;;;;;;;;;;8227281;28;20654;-59
2023/12/26 03:54:46;;;;;;;10.20;2.05;;;;;;;;;;8221803;28;20994;-59
2023/12/26 03:58:47;;;;;;;9.50;2.23;;;;;;;;;;8231786;28;20041;-59
2023/12/26 04:02:48;;;;;;;11.32;1.80;;;;;;;;;;8248667;28;20403;-59
2023/12/26 04:06:48;;;;;;;7.03;1.92;;;;;;;;;;8250587;28;20295;-59
2023/12/26 04:10:48;;;;;;;10.80;2.50;;;;;;;;;;8251851;28;20018;-59
2023/12/26 04:14:48;;;;;;;9.55;1.85;;;;;;;;;;8253117;28;20028;-58
2023/12/26 04:18:49;;;;;;;8.48;2.47;;;;;;;;;;8250759;28;20048;-59
2023/12/26 04:22:50;;;;;;;6.53;2.07;;;;;;;;;;8248081;28;20034;-59
2023/12/26 04:26:50;;;;;;;10.05;1.63;;;;;;;;;;8250235;28;20033;-59
2023/12/26 04:30:50;;;;;;;5.78;1.60;;;;;;;;;;8245411;28;20049;-59
2023/12/26 04:34:50;;;;;;;9.15;2.20;;;;;;;;;;8252296;28;20014;-59
2023/12/26 04:38:51;;;;;;;6.03;1.80;;;;;;;;;;8244200;28;20067;-59
2023/12/26 04:42:51;;;;;;;8.48;2.13;;;;;;;;;;8244513;28;20488;-59
2023/12/26 04:46:51;;;;;;;7.68;1.90;;;;;;;;;;8246441;28;20073;-59
2023/12/26 04:50:52;;;;;;;7.72;1.80;;;;;;;;;;8229897;28;20014;-60
2023/12/26 04:54:53;;;;;;;8.18;1.85;;;;;;;;;;8222192;28;20026;-60
2023/12/26 04:58:53;;;;;;;11.63;1.98;;;;;;;;;;8222342;28;20034;-60
2023/12/26 05:02:53;;;;;;;6.38;1.90;;;;;;;;;;8223909;28;20159;-60
2023/12/26 05:06:54;;;;;;;6.55;1.63;;;;;;;;;;8224946;28;20107;-56
2023/12/26 05:10:54;;;;;;;9.70;1.83;;;;;;;;;;8222317;28;20050;-57
2023/12/26 05:14:54;;;;;;;7.28;1.70;;;;;;;;;;8223686;28;20049;-58
2023/12/26 05:18:54;;;;;;;10.02;1.90;;;;;;;;;;8229624;28;20045;-59
2023/12/26 05:22:54;;;;;;;10.98;1.92;;;;;;;;;;8229957;28;20026;-59
2023/12/26 05:26:54;;;;;;;7.88;1.98;;;;;;;;;;8244450;28;20041;-59
2023/12/26 05:30:56;;;;;;;11.05;2.00;;;;;;;;;;8229829;28;20034;-59
2023/12/26 05:34:56;;;;;;;12.57;2.08;;;;;;;;;;8229443;28;20057;-58
2023/12/26 05:38:57;;;;;;;7.85;1.83;;;;;;;;;;8229415;28;20948;-58
2023/12/26 05:42:57;;;;;;;8.25;1.73;;;;;;;;;;8228652;28;20026;-59
2023/12/26 05:46:57;;;;;;;13.77;1.83;;;;;;;;;;8231810;28;20630;-58
2023/12/26 05:50:58;;;;;;;7.55;1.80;;;;;;;;;;8228507;28;20037;-59
2023/12/26 05:54:58;;;;;;;9.27;1.85;;;;;;;;;;8225408;28;20022;-58
2023/12/26 05:58:59;;;;;;;7.60;2.08;;;;;;;;;;8231703;28;20022;-58
2023/12/26 06:02:59;;;;;;;9.93;2.80;;;;;;;;;;8229022;28;20666;-58
2023/12/26 06:07:00;;;;;;;7.97;1.90;;;;;;;;;;8229514;28;20037;-57
2023/12/26 06:11:00;;;;;;;8.85;1.98;;;;;;;;;;8229074;28;20038;-57
2023/12/26 06:15:00;;;;;;;6.53;1.45;;;;;;;;;;8228052;28;20022;-58
2023/12/26 06:19:00;;;;;;;6.63;1.85;;;;;;;;;;8229369;28;20042;-58
2023/12/26 06:23:01;;;;;;;9.07;1.75;;;;;;;;;;8241538;28;20029;-58
2023/12/26 06:27:02;;;;;;;6.47;1.60;;;;;;;;;;8240503;28;20025;-58
2023/12/26 06:31:02;;;;;;;5.13;1.63;;;;;;;;;;8237388;28;20115;-58
2023/12/26 06:35:02;;;;;;;7.00;2.10;;;;;;;;;;8238646;28;20918;-58
2023/12/26 06:39:04;;;;;;;8.73;2.10;;;;;;;;;;8236664;28;21271;-58
2023/12/26 06:43:04;;;;;;;5.38;1.80;;;;;;;;;;8238973;28;20498;-58
2023/12/26 06:47:04;;;;;;;6.28;1.90;;;;;;;;;;8243036;28;20100;-58
2023/12/26 06:51:05;;;;;;;7.43;1.70;;;;;;;;;;8245389;28;20794;-58
2023/12/26 06:55:05;;;;;;;8.95;1.70;;;;;;;;;;8240062;28;20056;-58
2023/12/26 06:59:05;;;;;;;6.55;1.75;;;;;;;;;;8237288;28;20117;-58
2023/12/26 07:03:05;;;;;;;3.77;1.60;;;;;;;;;;8220939;28;20147;-58
2023/12/26 07:07:06;;;;;;;7.00;2.30;;;;;;;;;;8225538;28;20025;-58
2023/12/26 07:11:06;;;;;;;7.18;1.60;;;;;;;;;;8223721;28;20021;-58
2023/12/26 07:15:06;;;;;;;8.25;1.77;;;;;;;;;;8224772;28;20014;-58
2023/12/26 07:19:07;;;;;;;5.38;1.42;;;;;;;;;;8226704;28;20013;-57
2023/12/26 07:23:07;;;;;;;2.77;1.27;;;;;;;;;;8225213;28;20120;-58
2023/12/26 07:27:08;;;;;;;9.15;1.83;;;;;;;;;;8224403;28;20285;-58
2023/12/26 07:31:08;;;;;;;8.20;2.00;;;;;;;;;;8224130;28;20030;-58
2023/12/26 07:35:08;;;;;;;7.55;1.83;;;;;;;;;;8225872;28;20025;-57
2023/12/26 07:39:09;;;;;;;7.13;2.20;;;;;;;;;;8224948;28;20029;-58
2023/12/26 07:43:10;;;;;;;5.28;1.45;;;;;;;;;;8223202;28;20278;-58
2023/12/26 07:47:10;;;;;;;10.10;1.90;;;;;;;;;;8224355;28;20045;-57
2023/12/26 07:51:10;;;;;;;7.47;1.63;;;;;;;;;;8221731;28;20018;-57
2023/12/26 07:55:11;;;;;;;7.47;2.10;;;;;;;;;;8225301;28;20572;-57
2023/12/26 07:59:13;;;;;;;6.30;1.70;;;;;;;;;;8225232;28;20018;-58
2023/12/26 08:03:15;;;;;;;4.00;1.60;;;;;;;;;;8226612;28;20048;-58
2023/12/26 08:07:15;;;;;;;4.97;1.70;;;;;;;;;;8226723;28;20048;-57
2023/12/26 08:11:15;;;;;;;4.85;2.00;;;;;;;;;;8223730;28;20021;-57
2023/12/26 08:15:16;;;;;;;1.13;1.03;;;;;;;;;;8224002;28;20022;-58
2023/12/26 08:19:16;;;;;;;4.65;1.30;;;;;;;;;;8225224;28;20930;-58
2023/12/26 08:23:16;;;;;;;3.90;1.27;;;;;;;;;;8226159;28;20033;-58
2023/12/26 08:27:18;;;;;;;3.22;1.33;;;;;;;;;;8225560;28;20296;-58
2023/12/26 08:31:18;;;;;;;2.67;1.20;;;;;;;;;;8219780;28;20046;-58
2023/12/26 08:35:18;;;;;;;3.28;1.10;;;;;;;;;;8221827;28;20033;-58
2023/12/26 08:39:18;;;;;;;2.72;1.02;;;;;;;;;;8221440;28;20029;-57
2023/12/26 08:43:18;;;;;;;4.38;1.20;;;;;;;;;;8222459;28;20028;-58
2023/12/26 08:47:19;;;;;;;9.30;5.97;;;;;;;;;;8219673;28;20042;-58
2023/12/26 08:51:19;;;;;;;2.58;1.25;;;;;;;;;;8214444;28;20083;-58
2023/12/26 08:55:20;;;;;;;3.92;1.10;;;;;;;;;;8215954;28;20483;-59
2023/12/26 08:59:20;;;;;;;2.75;1.05;;;;;;;;;;8223747;28;20026;-59
2023/12/26 09:03:20;;;;;;;2.83;1.70;;;;;;;;;;8222677;28;20104;-59
2023/12/26 09:07:20;;;;;;;2.85;1.90;;;;;;;;;;8219000;28;20022;-58
2023/12/26 09:11:21;;;;;;;6.93;2.65;;;;;;;;;;8216629;28;20034;-59
2023/12/26 09:15:21;;;;;;;2.75;1.50;;;;;;;;;;8218921;28;20018;-58
2023/12/26 09:19:21;;;;;;;3.35;1.00;;;;;;;;;;8223233;28;20065;-59
2023/12/26 09:23:26;;;;;;;2.65;1.30;;;;;;;;;;8237386;28;20026;-59
2023/12/26 09:27:26;;;;;;;2.15;1.75;;;;;;;;;;8235792;28;20048;-59
2023/12/26 09:31:26;;;;;;;2.65;1.38;;;;;;;;;;8220090;28;20071;-59
2023/12/26 09:35:26;;;;;;;1.80;1.00;;;;;;;;;;8218379;28;20089;-59
2023/12/26 09:39:26;;;;;;;1.50;1.00;;;;;;;;;;8219030;28;20403;-60
2023/12/26 09:43:27;;;;;;;1.77;0.80;;;;;;;;;;8214756;28;20029;-60
2023/12/26 09:47:27;;;;;;;2.28;0.80;;;;;;;;;;8216612;28;20046;-59
2023/12/26 09:51:27;;;;;;;1.23;0.68;;;;;;;;;;8218499;28;20030;-59
2023/12/26 09:55:28;;;;;;;1.55;0.70;;;;;;;;;;8216206;28;20164;-59
2023/12/26 09:59:28;;;;;;;1.02;0.70;;;;;;;;;;8215733;28;20752;-59
2023/12/26 10:03:31;;;;;;;0.60;0.60;;;;;;;;;;8221676;28;20902;-58
2023/12/26 10:07:31;;;;;;;0.85;0.70;;;;;;;;;;8224594;28;20045;-59
2023/12/26 10:11:32;;;;;;;0.95;0.70;;;;;;;;;;8220886;28;20850;-58
2023/12/26 10:15:32;;;;;;;0.68;0.63;;;;;;;;;;8224879;28;20034;-59
2023/12/26 10:19:33;;;;;;;1.50;0.70;;;;;;;;;;8223582;28;20034;-59
2023/12/26 10:23:33;;;;;;;0.73;0.70;;;;;;;;;;8221373;28;20037;-59
2023/12/26 10:27:34;;;;;;;1.23;0.85;;;;;;;;;;8217137;28;20120;-59
2023/12/26 10:31:34;;;;;;;0.70;0.70;;;;;;;;;;8225571;28;20518;-57
2023/12/26 10:35:34;;;;;;;1.90;0.80;;;;;;;;;;8223008;28;20925;-58
2023/12/26 10:39:34;;;;;;;1.92;0.80;;;;;;;;;;8224552;28;20507;-58
2023/12/26 10:43:39;;;;;;;0.82;0.80;;;;;;;;;;8221036;28;20018;-58
2023/12/26 10:47:42;;;;;;;1.55;0.70;;;;;;;;;;8215790;28;20716;-59
2023/12/26 10:51:43;;;;;;;1.17;0.80;;;;;;;;;;8220101;28;20833;-58
2023/12/26 10:55:44;;;;;;;1.30;0.82;;;;;;;;;;8216155;28;20021;-58
2023/12/26 10:59:45;;;;;;;3.78;2.53;;;;;;;;;;8225215;28;20024;-58
2023/12/26 11:03:45;;;;;;;1.55;0.90;;;;;;;;;;8223082;28;20125;-59
2023/12/26 11:07:45;;;;;;;2.25;2.00;;;;;;;;;;8224248;28;20022;-58
2023/12/26 11:11:46;;;;;;;2.00;1.10;;;;;;;;;;8221238;28;20068;-58
2023/12/26 11:15:46;;;;;;;1.10;1.00;;;;;;;;;;8223231;28;20036;-57
2023/12/26 11:19:47;;;;;;;0.90;0.80;;;;;;;;;;8224961;28;20028;-59
2023/12/26 11:23:48;;;;;;;1.77;0.90;;;;;;;;;;8224946;28;20044;-58
2023/12/26 11:27:48;;;;;;;1.85;0.90;;;;;;;;;;8221377;28;20037;-58
2023/12/26 11:31:48;;;;;;;0.60;0.60;;;;;;;;;;8218354;28;20103;-58
2023/12/26 11:35:48;;;;;;;1.60;0.73;;;;;;;;;;8222582;28;20030;-58
2023/12/26 11:39:50;;;;;;;1.73;0.70;;;;;;;;;;8224656;28;20288;-58
2023/12/26 11:43:50;;;;;;;0.80;0.80;;;;;;;;;;8251724;28;20302;-58
2023/12/26 11:47:50;;;;;;;0.70;0.50;;;;;;;;;;8249349;28;20038;-58
2023/12/26 11:51:50;;;;;;;0.73;0.55;;;;;;;;;;8241108;28;20022;-58
2023/12/26 11:55:51;;;;;;;0.98;0.63;;;;;;;;;;8241855;28;20042;-59
2023/12/26 11:59:51;;;;;;;1.80;0.65;;;;;;;;;;8246693;28;20034;-58
2023/12/26 12:03:51;;;;;;;1.65;0.68;;;;;;;;;;8244336;28;20038;-59
2023/12/26 12:08:11;;;;;;;0.63;0.57;;;;;;;;;;8247103;28;20130;-59
2023/12/26 12:12:15;;;;;;;0.60;0.60;;;;;;;;;;8222611;28;20144;-61
2023/12/26 12:16:22;;;;;;;0.70;0.70;;;;;;;;;;8219688;28;20391;-59
2023/12/26 12:20:24;;;;;;;1.23;0.73;;;;;;;;;;8217146;28;20354;-59
2023/12/26 12:24:24;;;;;;;2.38;1.00;;;;;;;;;;8218339;28;20018;-59
2023/12/26 12:28:24;;;;;;;2.53;0.80;;;;;;;;;;8217585;28;20030;-59
2023/12/26 12:32:29;;;;;;;2.00;0.70;;;;;;;;;;8214043;28;20038;-59
2023/12/26 12:36:30;;;;;;;3.25;0.80;;;;;;;;;;8216739;28;20291;-59
2023/12/26 12:40:31;;;;;;;0.88;0.70;;;;;;;;;;8215808;28;20056;-59
2023/12/26 12:44:31;;;;;;;1.13;0.73;;;;;;;;;;8214271;28;20037;-60
2023/12/26 12:48:31;;;;;;;1.67;0.73;;;;;;;;;;8212958;28;20042;-60
2023/12/26 12:52:31;;;;;;;1.27;1.10;;;;;;;;;;8220506;28;20030;-60
2023/12/26 12:56:31;;;;;;;2.92;1.10;;;;;;;;;;8221399;28;20033;-59
2023/12/26 13:00:32;;;;;;;1.10;0.63;;;;;;;;;;8231565;28;20153;-58
2023/12/26 13:04:32;;;;;;;1.00;0.75;;;;;;;;;;8249262;28;20030;-58
2023/12/26 13:08:33;;;;;;;2.75;1.17;;;;;;;;;;8247670;28;20026;-58
2023/12/26 13:12:33;;;;;;;1.43;0.80;;;;;;;;;;8249053;28;20030;-57
2023/12/26 13:16:33;;;;;;;0.85;0.77;;;;;;;;;;8250037;28;20319;-58
2023/12/26 13:20:38;;;;;;;1.10;0.65;;;;;;;;;;8245486;28;20041;-58
2023/12/26 13:24:38;;;;;;;1.38;0.80;;;;;;;;;;8219538;28;20079;-58
2023/12/26 13:28:41;;;;;;;1.63;0.85;;;;;;;;;;8219550;28;20118;-57
2023/12/26 13:32:42;;;;;;;2.20;0.80;;;;;;;;;;8217197;28;20034;-58
2023/12/26 13:36:42;;;;;;;0.65;0.60;;;;;;;;;;8216327;28;20357;-58
2023/12/26 13:40:43;;;;;;;0.85;0.70;;;;;;;;;;8219818;28;20026;-58
2023/12/26 13:44:44;;;;;;;0.60;0.60;;;;;;;;;;8222983;28;20104;-58
2023/12/26 13:48:44;;;;;;;0.65;0.65;;;;;;;;;;8223558;28;20129;-58
2023/12/26 13:52:44;;;;;;;0.68;0.68;;;;;;;;;;8224293;28;20017;-58
2023/12/26 13:56:44;;;;;;;0.60;0.60;;;;;;;;;;8220627;28;21331;-59
2023/12/26 14:00:44;;;;;;;0.50;0.50;;;;;;;;;;8221914;28;20034;-58
2023/12/26 14:04:45;;;;;;;0.50;0.50;;;;;;;;;;8223068;28;20394;-58
2023/12/26 14:08:49;;;;;;;0.60;0.60;;;;;;;;;;8219389;28;20629;-58
2023/12/26 14:12:49;;;;;;;0.70;0.70;;;;;;;;;;8251099;28;20029;-58
2023/12/26 14:16:49;;;;;;;0.60;0.60;;;;;;;;;;8262375;28;20045;-58
2023/12/26 14:20:49;;;;;;;1.20;0.70;;;;;;;;;;8251614;28;20044;-58
2023/12/26 14:24:50;;;;;;;1.50;1.40;;;;;;;;;;8251590;28;20025;-58
2023/12/26 14:28:50;;;;;;;0.70;0.70;;;;;;;;;;8254363;28;20030;-58
2023/12/26 14:32:50;;;;;;;0.85;0.77;;;;;;;;;;8220610;28;20046;-58
2023/12/26 14:36:50;;;;;;;0.77;0.77;;;;;;;;;;8223368;28;20060;-58
2023/12/26 14:40:50;;;;;;;4.03;2.40;;;;;;;;;;8221476;28;20022;-58
2023/12/26 14:44:51;;;;;;;4.38;2.35;;;;;;;;;;8220936;28;20551;-57
2023/12/26 14:48:51;;;;;;;2.03;1.50;;;;;;;;;;8221404;28;20050;-57
2023/12/26 14:52:51;;;;;;;5.28;3.90;;;;;;;;;;8221897;28;20101;-56
2023/12/26 14:56:51;;;;;;;3.28;1.33;;;;;;;;;;8220365;28;20034;-57
2023/12/26 15:00:51;;;;;;;2.67;1.73;;;;;;;;;;8223657;28;20037;-57
2023/12/26 15:04:52;;;;;;;5.80;3.43;;;;;;;;;;8223247;28;20022;-58
2023/12/26 15:08:52;;;;;;;1.77;1.60;;;;;;;;;;8220895;28;20327;-57
2023/12/26 15:12:52;;;;;;;5.50;3.38;;;;;;;;;;8218438;28;20018;-58
2023/12/26 15:16:52;;;;;;;2.05;1.30;;;;;;;;;;8222860;28;20145;-58
2023/12/26 15:20:52;;;;;;;2.33;1.20;;;;;;;;;;8219203;28;20521;-57
2023/12/26 15:24:52;;;;;;;3.08;1.10;;;;;;;;;;8220832;28;20026;-57
2023/12/26 15:28:53;;;;;;;1.80;1.10;;;;;;;;;;8221119;28;20034;-58
2023/12/26 15:32:53;;;;;;;3.85;1.20;;;;;;;;;;8223469;28;20549;-58
2023/12/26 15:36:53;;;;;;;2.10;1.10;;;;;;;;;;8222457;28;20030;-58
2023/12/26 15:40:53;;;;;;;4.68;1.20;;;;;;;;;;8229799;28;20091;-59
2023/12/26 15:44:54;;;;;;;2.78;1.20;;;;;;;;;;8263426;28;20030;-58
2023/12/26 15:48:54;;;;;;;1.60;1.50;;;;;;;;;;8264859;28;20079;-58
2023/12/26 15:52:55;;;;;;;5.45;4.40;;;;;;;;;;8266175;28;20280;-60
2023/12/26 15:56:56;;;;;;;1.75;1.20;;;;;;;;;;8256836;28;20045;-59
2023/12/26 16:00:59;;;;;;;3.38;1.30;;;;;;;;;;8258049;28;20034;-58
2023/12/26 16:04:59;;;;;;;2.22;1.10;;;;;;;;;;8260930;28;20026;-58
2023/12/26 16:09:01;;;;;;;1.63;1.00;;;;;;;;;;8260079;28;20082;-58
2023/12/26 16:13:01;;;;;;;4.07;1.23;;;;;;;;;;8253751;28;20640;-58
2023/12/26 16:17:01;;;;;;;4.63;1.20;;;;;;;;;;8257299;28;20071;-58
2023/12/26 16:21:03;;;;;;;5.20;1.65;;;;;;;;;;8250981;28;20280;-60
2023/12/26 16:25:04;;;;;;;4.20;1.45;;;;;;;;;;8246386;28;20060;-57
2023/12/26 16:29:05;;;;;;;2.90;1.33;;;;;;;;;;8247910;28;20029;-58
2023/12/26 16:33:05;;;;;;;4.35;1.60;;;;;;;;;;8245062;28;20730;-58
2023/12/26 16:37:05;;;;;;;7.45;1.30;;;;;;;;;;8245699;28;20415;-58
2023/12/26 16:41:06;;;;;;;3.45;1.60;;;;;;;;;;8239999;28;20136;-57
2023/12/26 16:45:07;;;;;;;4.70;1.75;;;;;;;;;;8247663;28;20028;-58
2023/12/26 16:49:07;;;;;;;5.43;1.40;;;;;;;;;;8250679;28;20026;-57
2023/12/26 16:53:07;;;;;;;8.13;1.42;;;;;;;;;;8224810;28;20599;-60
2023/12/26 16:57:10;;;;;;;5.50;1.73;;;;;;;;;;8216461;28;20018;-59
2023/12/26 17:01:11;;;;;;;6.10;1.40;;;;;;;;;;8216910;28;20243;-58
2023/12/26 17:05:11;;;;;;;3.22;1.40;;;;;;;;;;8218866;28;22438;-59
2023/12/26 17:09:12;;;;;;;3.87;1.80;;;;;;;;;;8217181;28;20045;-59
2023/12/26 17:13:12;;;;;;;4.22;1.30;;;;;;;;;;8217944;28;20305;-60
2023/12/26 17:17:12;;;;;;;3.07;1.20;;;;;;;;;;8220935;28;20514;-59
2023/12/26 17:21:13;;;;;;;4.03;1.30;;;;;;;;;;8217952;28;20320;-59
2023/12/26 17:25:13;;;;;;;3.67;1.20;;;;;;;;;;8219938;28;20037;-58
2023/12/26 17:29:13;;;;;;;8.30;1.52;;;;;;;;;;8219242;28;20399;-59
2023/12/26 17:33:15;;;;;;;6.22;1.50;;;;;;;;;;8245746;28;20208;-57
2023/12/26 17:37:15;;;;;;;5.78;1.58;;;;;;;;;;8252222;28;20014;-58
2023/12/26 17:41:15;;;;;;;2.88;1.30;;;;;;;;;;8233654;28;20041;-58
2023/12/26 17:45:15;;;;;;;2.20;1.13;;;;;;;;;;8219648;28;20183;-58
2023/12/26 17:49:16;;;;;;;3.90;1.65;;;;;;;;;;8221992;28;20230;-59
2023/12/26 17:53:18;;;;;;;4.32;1.40;;;;;;;;;;8219777;28;20045;-58
2023/12/26 17:57:18;;;;;;;5.80;1.60;;;;;;;;;;8219080;28;20089;-59
2023/12/26 18:01:18;;;;;;;4.70;1.45;;;;;;;;;;8216009;28;20045;-58
2023/12/26 18:05:18;;;;;;;4.43;1.63;;;;;;;;;;8216064;28;20030;-58
2023/12/26 18:09:19;;;;;;;6.90;1.60;;;;;;;;;;8215946;28;20697;-58
2023/12/26 18:13:19;;;;;;;2.42;1.30;;;;;;;;;;8216231;28;20029;-57
2023/12/26 18:17:19;;;;;;;5.43;1.48;;;;;;;;;;8221861;28;20050;-58
2023/12/26 18:21:19;;;;;;;3.97;1.60;;;;;;;;;;8222704;28;20030;-58
2023/12/26 18:25:20;;;;;;;12.97;1.83;;;;;;;;;;8222386;28;20022;-57
2023/12/26 18:29:20;;;;;;;5.93;1.57;;;;;;;;;;8225851;28;20037;-58
2023/12/26 18:33:20;;;;;;;1.95;1.25;;;;;;;;;;8226097;28;20093;-58
2023/12/26 18:37:20;;;;;;;5.72;1.63;;;;;;;;;;8221228;28;20052;-58
2023/12/26 18:41:20;;;;;;;3.72;1.10;;;;;;;;;;8220528;28;20406;-58
2023/12/26 18:45:21;;;;;;;3.15;1.38;;;;;;;;;;8221578;28;20032;-58
2023/12/26 18:49:21;;;;;;;4.25;1.40;;;;;;;;;;8220841;28;20025;-58
2023/12/26 18:53:21;;;;;;;3.92;1.90;;;;;;;;;;8244488;28;20029;-58
2023/12/26 18:57:23;;;;;;;2.85;1.35;;;;;;;;;;8253041;28;20437;-57
2023/12/26 19:01:24;;;;;;;3.97;1.10;;;;;;;;;;8253510;28;20895;-57
2023/12/26 19:05:24;;;;;;;3.05;1.35;;;;;;;;;;8252096;28;20057;-57
2023/12/26 19:09:24;;;;;;;3.35;1.70;;;;;;;;;;8246052;28;20029;-57
2023/12/26 19:13:25;;;;;;;3.70;1.80;;;;;;;;;;8223320;28;20029;-57
2023/12/26 19:17:25;;;;;;;1.60;1.50;;;;;;;;;;8217349;28;20104;-58
2023/12/26 19:21:25;;;;;;;3.80;1.63;;;;;;;;;;8221013;28;20080;-57
2023/12/26 19:25:25;;;;;;;5.40;2.15;;;;;;;;;;8221128;28;20550;-57
2023/12/26 19:29:25;;;;;;;4.00;2.10;;;;;;;;;;8215560;28;20018;-57
2023/12/26 19:33:26;;;;;;;7.15;2.03;;;;;;;;;;8215152;28;20034;-57
2023/12/26 19:37:27;;;;;;;4.90;2.10;;;;;;;;;;8219020;28;21225;-57
2023/12/26 19:41:28;;;;;;;3.72;2.00;;;;;;;;;;8219015;28;20315;-57
2023/12/26 19:45:29;;;;;;;8.57;2.00;;;;;;;;;;8217027;28;20041;-56
2023/12/26 19:49:29;;;;;;;6.20;1.70;;;;;;;;;;8222596;28;20029;-58
2023/12/26 19:53:29;;;;;;;3.80;1.63;;;;;;;;;;8223656;28;20025;-58
2023/12/26 19:57:29;;;;;;;6.40;1.80;;;;;;;;;;8225084;28;23283;-56
2023/12/26 20:01:30;;;;;;;6.67;2.30;;;;;;;;;;8221001;28;20042;-57
2023/12/26 20:05:30;;;;;;;4.47;1.83;;;;;;;;;;8221648;28;20276;-58
2023/12/26 20:09:30;;;;;;;4.45;1.48;;;;;;;;;;8220252;28;20328;-58
2023/12/26 20:13:30;;;;;;;4.67;1.60;;;;;;;;;;8221875;28;22018;-58
2023/12/26 20:17:31;;;;;;;3.40;1.50;;;;;;;;;;8220013;28;21506;-57
2023/12/26 20:21:31;;;;;;;7.13;1.83;;;;;;;;;;8218852;28;20026;-59
2023/12/26 20:25:31;;;;;;;7.35;1.80;;;;;;;;;;8216527;28;20026;-59
2023/12/26 20:29:32;;;;;;;6.90;2.03;;;;;;;;;;8219925;28;20165;-59
2023/12/26 20:33:32;;;;;;;4.95;1.92;;;;;;;;;;8214778;28;21186;-59
2023/12/26 20:37:32;;;;;;;7.72;1.77;;;;;;;;;;8212997;28;20072;-59
2023/12/26 20:41:32;;;;;;;5.10;2.10;;;;;;;;;;8219046;28;20107;-59
2023/12/26 20:45:32;;;;;;;3.42;1.80;;;;;;;;;;8217884;28;20037;-58
2023/12/26 20:49:33;;;;;;;7.85;1.92;;;;;;;;;;8223573;28;20058;-59
2023/12/26 20:53:33;;;;;;;5.50;2.08;;;;;;;;;;8221003;28;20144;-59
2023/12/26 20:57:33;;;;;;;4.03;1.80;;;;;;;;;;8215884;28;20043;-59
2023/12/26 21:01:33;;;;;;;6.07;1.88;;;;;;;;;;8216477;28;20355;-59
2023/12/26 21:05:33;;;;;;;4.83;1.90;;;;;;;;;;8220904;28;20021;-59
2023/12/26 21:09:34;;;;;;;6.57;2.08;;;;;;;;;;8218067;28;20388;-60
2023/12/26 21:13:35;;;;;;;7.13;1.83;;;;;;;;;;8233355;28;20508;-59
2023/12/26 21:17:35;;;;;;;8.50;2.00;;;;;;;;;;8242466;28;20361;-59
2023/12/26 21:21:36;;;;;;;8.07;1.80;;;;;;;;;;8248184;28;20028;-59
2023/12/26 21:25:36;;;;;;;4.25;1.50;;;;;;;;;;8247267;28;20033;-58
2023/12/26 21:29:36;;;;;;;3.30;1.55;;;;;;;;;;8249334;28;20032;-59
2023/12/26 21:33:39;;;;;;;2.55;1.52;;;;;;;;;;8220696;28;20049;-59
2023/12/26 21:37:39;;;;;;;4.32;1.45;;;;;;;;;;8216866;28;20036;-59
2023/12/26 21:41:41;;;;;;;5.28;1.90;;;;;;;;;;8213880;28;20056;-59
2023/12/26 21:45:41;;;;;;;3.55;1.50;;;;;;;;;;8216079;28;20041;-60
2023/12/26 21:49:42;;;;;;;3.28;1.60;;;;;;;;;;8215782;28;20300;-58
2023/12/26 21:53:43;;;;;;;5.00;2.10;;;;;;;;;;8215424;28;20026;-59
2023/12/26 21:57:43;;;;;;;10.30;2.70;;;;;;;;;;8221280;28;20294;-59
2023/12/26 22:01:43;;;;;;;5.82;3.00;;;;;;;;;;8220654;28;20630;-58
2023/12/26 22:05:44;;;;;;;4.97;2.30;;;;;;;;;;8221564;28;20056;-58
2023/12/26 22:09:45;;;;;;;6.00;2.38;;;;;;;;;;8220932;28;20072;-58
2023/12/26 22:13:45;;;;;;;4.68;1.98;;;;;;;;;;8216063;28;20026;-59
2023/12/26 22:17:45;;;;;;;5.95;2.25;;;;;;;;;;8221965;28;20105;-58
2023/12/26 22:21:46;;;;;;;4.38;2.00;;;;;;;;;;8227232;28;20133;-58
2023/12/26 22:25:47;;;;;;;7.28;2.33;;;;;;;;;;8252320;28;20944;-59
2023/12/26 22:29:53;;;;;;;5.13;1.90;;;;;;;;;;8251729;28;20065;-59
2023/12/26 22:33:54;;;;;;;4.65;2.60;;;;;;;;;;8253887;28;20060;-59
2023/12/26 22:37:54;;;;;;;8.82;2.42;;;;;;;;;;8251316;28;20866;-59
2023/12/26 22:41:54;;;;;;;9.32;2.30;;;;;;;;;;8254107;28;20037;-58
2023/12/26 22:45:54;;;;;;;7.68;2.28;;;;;;;;;;8255044;28;20034;-59
2023/12/26 22:49:55;;;;;;;5.82;2.45;;;;;;;;;;8254512;28;20148;-59
2023/12/26 22:53:55;;;;;;;5.03;1.90;;;;;;;;;;8255951;28;20049;-59
2023/12/26 22:57:55;;;;;;;7.35;2.10;;;;;;;;;;8252763;28;20042;-58
2023/12/26 23:01:55;;;;;;;6.77;2.00;;;;;;;;;;8249900;28;20085;-57
2023/12/26 23:05:58;;;;;;;6.53;2.00;;;;;;;;;;8250987;28;20273;-58
2023/12/26 23:09:58;;;;;;;6.90;2.00;;;;;;;;;;8247439;28;20888;-57
2023/12/26 23:13:59;;;;;;;5.00;1.88;;;;;;;;;;8257474;28;20072;-57
2023/12/26 23:18:00;;;;;;;4.63;2.00;;;;;;;;;;8257164;28;20103;-58
2023/12/26 23:22:00;;;;;;;9.80;2.15;;;;;;;;;;8246090;28;20022;-58
2023/12/26 23:26:00;;;;;;;8.68;2.00;;;;;;;;;;8224959;28;20033;-57
2023/12/26 23:30:00;;;;;;;5.80;1.98;;;;;;;;;;8226481;28;20610;-58
2023/12/26 23:34:01;;;;;;;7.15;2.00;;;;;;;;;;8246417;28;20034;-58
2023/12/26 23:38:01;;;;;;;8.73;2.10;;;;;;;;;;8254747;28;20784;-58
2023/12/26 23:42:04;;;;;;;9.88;2.28;;;;;;;;;;8251281;28;20060;-58
2023/12/26 23:46:09;;;;;;;3.70;1.60;;;;;;;;;;8256145;28;20057;-59
2023/12/26 23:50:09;;;;;;;3.53;1.50;;;;;;;;;;8255154;28;20870;-58
2023/12/26 23:54:10;;;;;;;6.07;1.80;;;;;;;;;;8221188;28;20605;-58
2023/12/26 23:58:10;;;;;;;3.05;1.50;;;;;;;;;;8225607;28;20038;-59
